Tiempo atmosférico en la estación meteorológica de Punta Galea, Bizkaia (90 m.)



Fecha
DESCASC
Temp. máxima en grados centígrados (hora)
DESCASC
Temp. mínima en grados centígrados (hora)
DESCASC
Temp. media en grados centígrados
DESCASC
Racha de viento máxima en m/sg (hora)
DESCASC
Velocidad máxima media en intervalos de 10 minutos(hora)
DESCASC
Precipitaciones diarias en mm
DESCASC
Precipitaciones de 00:00 a 06:00 en mm
DESCASC
Precipitaciones de 06:00 a 12:00 en mm
DESCASC
Precipitaciones de 12:00 a 18:00 en mm
DESCASC
Precipitaciones de 18:00 a 24:00 en mm
DESCASC
05-04-2020 24.7 (17:30) 13.2 (06:40) 19 12.5 (12:20) 6.11 (11:30) 1.1 0 0 0 1.1
04-04-2020 24.1 (16:50) 5.7 (02:20) 14.9 10.28 (18:40) 4.72 (09:20) 0 0 0 0 0
03-04-2020 13.4 (14:50) 4.6 (07:20) 9 8.61 (16:00) 5.28 (16:30) 0 0 0 0 0
02-04-2020 13.8 (16:30) 9.9 (00:00) 11.8 6.11 (17:10) 3.89 (07:30) 0.8 0 0.8 0 0
01-04-2020 17.4 (15:40) 6.7 (00:00) 12 8.33 (12:40) 3.89 (12:40) 0.4 0 0.4 0 0
31-03-2020 8 (17:10) 0.8 (00:00) 4.4 6.11 (13:10) 3.33 (13:50) 2.1 0.1 0.3 1.6 0.1
30-03-2020 8.1 (13:40) 2.8 (00:00) 5.5 13.61 (10:10) 8.06 (10:20) 5.9 0.8 0.6 3.2 1.3
29-03-2020 13.3 (14:10) 4.9 (00:00) 9.1 10.56 (21:40) 5.83 (21:30) 0.9 0 0 0.8 0.1
28-03-2020 14.5 (15:10) 4.4 (00:00) 9.5 7.22 (16:30) 4.17 (16:30) 0 0 0 0 0
27-03-2020 13 (14:20) 2.7 (00:00) 7.9 7.5 (17:40) 4.72 (18:00) 0 0 0 0 0
26-03-2020 12.1 (15:50) 8.4 (00:00) 10.3 12.22 (05:50) 8.06 (04:40) 0 0 0 0 0
25-03-2020 13.9 (13:10) 6.9 (00:00) 10.4 8.06 (17:40) 3.89 (23:10) 0 0 0 0 0
24-03-2020 16.8 (14:40) 8.3 (00:00) 12.5 7.5 (15:40) 3.89 (15:40) 0 0 0 0 0
23-03-2020 15.3 (16:50) 10.7 (00:00) 13 7.5 (17:30) 5.28 (17:30) 0 0 0 0 0
22-03-2020 15 (16:00) 8.5 (07:30) 11.8 6.39 (14:00) 2.78 (14:00) 0 0 0 0 0
21-03-2020 20 (13:50) 11.3 (00:00) 15.7 9.44 (10:00) 4.44 (10:40) 0 0 0 0 0
20-03-2020 20.5 (14:30) 10.9 (00:00) 15.7 7.78 (04:50) 3.61 (04:50) 0 0 0 0 0
19-03-2020 16.8 (12:20) 9.8 (00:00) 13.3 4.72 (11:40) 3.33 (16:10) 0 0 0 0 0
18-03-2020 13.1 (13:40) 9.4 (00:00) 11.3 5.28 (03:00) 3.06 (04:50) 0 0 0 0 0
17-03-2020 12.3 (17:30) 9.5 (00:00) 10.9 8.61 (03:50) 3.33 (03:50) 1.1 1 0.1 0 0
16-03-2020 11 (22:30) 7.2 (00:00) 9.1 12.5 (09:40) 7.78 (00:30) 24.5 5.2 13.9 5.3 0.1
15-03-2020 14.3 (09:20) 6.9 (00:00) 10.6 17.78 (20:40) 10.56 (20:30) 4.9 0 0 0 4.9
14-03-2020 14 (14:50) 3.4 (00:00) 8.7 5.56 (16:00) 3.61 (16:00) 0 0 0 0 0
13-03-2020 13.6 (14:10) 5.5 (23:59) 9.6 6.67 (15:10) 4.17 (15:00) 0.1 0.1 0 0 0
12-03-2020 14 (13:40) 9.8 (00:00) 11.9 6.94 (18:10) 3.89 (22:10) 2.4 0 0 0 2.4
11-03-2020 15.7 (14:00) 6.7 (00:00) 11.2 5.28 (18:50) 3.33 (18:50) 0 0 0 0 0
10-03-2020 14.3 (14:30) 6.7 (00:00) 10.5 4.17 (04:20) 2.78 (05:40) 0 0 0 0 0

Gráficas

Temp. máximas Temp. mínimas Temp. medias Precipitaciones Rachas de viento máximas Velocidades máximas media en intervalos de 10 minutos

Datos horarios

Fecha y hora oficial Temperatura (ºC) Velocidad del viento (km/h) Dirección del viento Racha (km/h) Dirección de racha Precipitación (mm) Presión (hPa) Tendencia (hPa) Humedad (%)
2020-04-08 23:00:00 12.6 0 Calma 6 Oeste 0 -- -- 97
2020-04-08 22:00:00 12.6 0 Calma 6 Oeste 0 -- -- 97
2020-04-08 21:00:00 13 4 Oeste 8 Oeste 0 -- -- 96
2020-04-08 20:00:00 13.2 6 Noroeste 14 Oeste 0 -- -- 96
2020-04-08 19:00:00 13.3 9 Noroeste 18 Norte 0 -- -- 96
2020-04-08 18:00:00 13.7 8 Noroeste 14 Noroeste 0 -- -- 96
2020-04-08 17:00:00 13.5 9 Norte 18 Norte 0 -- -- 96
2020-04-08 16:00:00 13.3 9 Norte 19 Norte 0 -- -- 95
2020-04-08 15:00:00 13.3 10 Norte 20 Norte 0 -- -- 96
2020-04-08 14:00:00 13.3 9 Norte 16 Norte 0 -- -- 96
2020-04-08 13:00:00 14.3 9 Norte 13 Nordeste 0 -- -- 96
2020-04-08 12:00:00 13.3 7 Nordeste 10 Nordeste 0 -- -- 98
2020-04-08 11:00:00 12.8 3 Norte 5 Nordeste 0 -- -- 98
2020-04-08 10:00:00 12.1 0 Calma 6 Nordeste 0 -- -- 98
2020-04-08 09:00:00 11.7 0 Calma 6 Noroeste 0 -- -- 98
2020-04-08 08:00:00 11.6 3 Noroeste 7 Noroeste 0.1 -- -- 98
2020-04-08 07:00:00 11.1 0 Calma 5 Sudeste 0 -- -- 98
2020-04-08 06:00:00 11.8 0 Calma 2 Norte 0 -- -- 98
2020-04-08 05:00:00 12 0 Calma 7 Norte 0 -- -- 98
2020-04-08 04:00:00 12 4 Noroeste 8 Noroeste 0 -- -- 97
2020-04-08 03:00:00 11.8 0 Calma 4 Oeste 0 -- -- 97
2020-04-08 02:00:00 12.2 0 Calma 8 Norte 0 -- -- 97
2020-04-08 01:00:00 12.5 5 Noroeste 16 Noroeste 0 -- -- 97
2020-04-08 00:00:00 12.6 5 Noroeste 13 Noroeste 0 -- -- 97
2020-04-07 23:00:00 13.3 5 Sudoeste 10 Sur 0.1 -- -- 97
2020-04-07 22:00:00 13.4 2 Sudeste 9 Sudeste 0.3 -- -- 97
2020-04-07 21:00:00 13.4 5 Noroeste 17 Oeste 1.5 -- -- 97
2020-04-07 20:00:00 13.5 10 Oeste 17 Oeste 0 -- -- 96
2020-04-07 19:00:00 14.3 8 Noroeste 13 Noroeste 0 -- -- 92
2020-04-07 18:00:00 14.2 8 Noroeste 15 Oeste 0 -- -- 93
2020-04-07 17:00:00 14.6 11 Noroeste 15 Oeste 0 -- -- 92
2020-04-07 16:00:00 15.3 8 Noroeste 14 Noroeste 0 -- -- 92
2020-04-07 15:00:00 14.6 8 Noroeste 14 Noroeste 0 -- -- 92
2020-04-07 14:00:00 14.9 6 Norte 14 Noroeste 0 -- -- 91
2020-04-07 13:00:00 14.9 6 Noroeste 15 Sudeste 0 -- -- 89
2020-04-07 12:00:00 18.1 8 Sudeste 21 Sudeste 0 -- -- 80
2020-04-07 11:00:00 15.3 9 Sudeste 17 Sudeste 0 -- -- 92
2020-04-07 10:00:00 13.2 3 Sudeste 11 Sudeste 0 -- -- 97
2020-04-07 09:00:00 11.5 5 Sur 14 Sur 0 -- -- 98
2020-04-07 08:00:00 10.5 7 Sur 13 Sur 0.1 -- -- 98
2020-04-07 07:00:00 10.6 8 Sudeste 11 Sudeste 0 -- -- 98
2020-04-07 06:00:00 10.7 0 Calma 10 Sudeste 0 -- -- 98
2020-04-07 05:00:00 10.8 0 Calma 5 Sudeste 0 -- -- 97
2020-04-07 04:00:00 10.7 3 Este 5 Este 0 -- -- 97
2020-04-07 03:00:00 10.7 3 Sudeste 5 Sudeste 0 -- -- 97
2020-04-07 02:00:00 10.9 3 Sudeste 5 Sudeste 0.1 -- -- 97
2020-04-07 01:00:00 11.3 3 Sur 5 Sur 0 -- -- 97
2020-04-07 00:00:00 11.5 3 Sur 5 Sudoeste 0 -- -- 97
2020-04-06 23:00:00 11.7 0 Calma 3 Sudeste 0.4 -- -- 96
2020-04-06 22:00:00 11.7 0 Calma 8 Nordeste 0.1 -- -- 96
2020-04-06 21:00:00 11.6 5 Nordeste 10 Nordeste 0 -- -- 96
2020-04-06 20:00:00 11.6 6 Nordeste 12 Nordeste 0 -- -- 97
2020-04-06 19:00:00 11.6 4 Noroeste 12 Oeste 0 -- -- 98
2020-04-06 18:00:00 11.9 6 Noroeste 11 Oeste 0 -- -- 98
2020-04-06 17:00:00 11.7 7 Noroeste 19 Oeste 0 -- -- 98
2020-04-06 16:00:00 11.5 9 Noroeste 15 Oeste 0.3 -- -- 98
2020-04-06 15:00:00 11.6 8 Noroeste 24 Noroeste 0.6 -- -- 98
2020-04-06 14:00:00 11.6 14 Noroeste 23 Noroeste 1.7 -- -- 98
2020-04-06 13:00:00 12.3 9 Noroeste 17 Noroeste 0.7 -- -- 97
2020-04-06 12:00:00 12.8 2 Norte 5 Este 2.5 -- -- 97
2020-04-06 11:00:00 12.8 3 Nordeste 7 Nordeste 0.6 -- -- 97
2020-04-06 10:00:00 12.8 0 Calma 6 Sur 1.1 -- -- 96
2020-04-06 09:00:00 12.6 4 Sur 11 Sudeste 1 -- -- 95
2020-04-06 08:00:00 13.4 5 Sur 10 Sur 0.6 -- -- 95
2020-04-06 07:00:00 13.8 3 Oeste 14 Noroeste 0 -- -- 93
2020-04-06 06:00:00 13.9 8 Noroeste 18 Noroeste 0 -- -- 90
2020-04-06 05:00:00 15 7 Noroeste 20 Sudeste 0 -- -- 82
2020-04-06 04:00:00 15.7 8 Sur 19 Sudeste 0 -- -- 73
2020-04-06 03:00:00 16.1 9 Sur 22 Sur 0 -- -- 71
2020-04-06 02:00:00 16.1 11 Sur 18 Sur 0 -- -- 72
2020-04-06 01:00:00 15.9 6 Sur 20 Sudeste 0 -- -- 73
2020-04-06 00:00:00 15.5 8 Sur 15 Sur 0.1 -- -- 77
2020-04-05 23:00:00 15.7 6 Sur 16 Sudeste 0.7 -- -- 80
2020-04-05 22:00:00 17.1 8 Sur 22 Sudeste 0.3 -- -- 64
2020-04-05 21:00:00 19 9 Sudeste 18 Sudeste 0 -- -- 49
2020-04-05 20:00:00 20.2 9 Sudeste 24 Sur 0 -- -- 47
2020-04-05 19:00:00 22.1 10 Sur 29 Sur 0 -- -- 40
2020-04-05 18:00:00 24.1 12 Sudoeste 28 Sudoeste 0 -- -- 38
2020-04-05 17:00:00 23.1 10 Sur 32 Sur 0 -- -- 42
2020-04-05 16:00:00 22.2 14 Sur 38 Sur 0 -- -- 42
2020-04-05 15:00:00 22.6 15 Sur 41 Sur 0 -- -- 42
2020-04-05 14:00:00 22.5 17 Sur 39 Sur 0 -- -- 42
2020-04-05 13:00:00 21.2 16 Sur 45 Sur 0 -- -- 46
2020-04-05 12:00:00 18.8 20 Sur 44 Sur 0 -- -- 50
2020-04-05 11:00:00 16.8 21 Sur 44 Sur 0 -- -- 53
2020-04-05 10:00:00 16.1 18 Sur 40 Sur 0 -- -- 55
2020-04-05 09:00:00 15.3 20 Sur 37 Sur 0 -- -- 57
2020-04-05 08:00:00 13.6 13 Sur 28 Sudeste 0 -- -- 63
2020-04-05 07:00:00 13.3 13 Sur 30 Sudeste 0 -- -- 62
2020-04-05 06:00:00 13.6 14 Sudeste 32 Sur 0 -- -- 61
2020-04-05 05:00:00 14.1 11 Sur 35 Sudeste 0 -- -- 60
2020-04-05 04:00:00 14.6 13 Sudeste 29 Sur 0 -- -- 57
2020-04-05 03:00:00 15.4 12 Sur 36 Sudeste 0 -- -- 53
2020-04-05 02:00:00 16 16 Sudeste 33 Sudeste 0 -- -- 48
2020-04-05 01:00:00 16.3 14 Sur 33 Sur 0 -- -- 48
2020-04-05 00:00:00 16.6 13 Sur 31 Sudeste 0 -- -- 47
2020-04-04 23:00:00 17.2 14 Sur 35 Sudeste 0 -- -- 44
2020-04-04 22:00:00 17.7 13 Sudeste 26 Sudeste 0 -- -- 41
2020-04-04 21:00:00 18.6 13 Sudeste 29 Sudeste 0 -- -- 35
2020-04-04 20:00:00 19.6 14 Sudeste 28 Sur 0 -- -- 32
2020-04-04 19:00:00 20.9 13 Sudeste 37 Sudeste 0 -- -- 30
2020-04-04 18:00:00 21.9 13 Sudeste 34 Sudeste 0 -- -- 28
2020-04-04 17:00:00 23.4 11 Sur 24 Sudeste 0 -- -- 27
2020-04-04 16:00:00 23.1 8 Sudeste 24 Sudeste 0 -- -- 28
2020-04-04 15:00:00 22.5 8 Sudeste 20 Sur 0 -- -- 30
2020-04-04 14:00:00 21.9 8 Sur 23 Sur 0 -- -- 33
2020-04-04 13:00:00 19.9 9 Sudeste 28 Sudeste 0 -- -- 39
2020-04-04 12:00:00 17.8 9 Sudeste 18 Sudeste 0 -- -- 44
2020-04-04 11:00:00 15.6 8 Sur 19 Sur 0 -- -- 47
2020-04-04 10:00:00 13.4 6 Sudeste 36 Sur 0 -- -- 57
2020-04-04 09:00:00 11.1 13 Sur 28 Sur 0 -- -- 64
2020-04-04 08:00:00 8.4 15 Sur 27 Sudeste 0 -- -- 74
2020-04-04 07:00:00 8 13 Sudeste 23 Sudeste 0 -- -- 77
2020-04-04 06:00:00 8.1 13 Sur 24 Sudeste 0 -- -- 78
2020-04-04 05:00:00 7.2 13 Sudeste 22 Sudeste 0 -- -- 85
2020-04-04 04:00:00 6.5 10 Sur 20 Sudeste 0 -- -- 89
2020-04-04 03:00:00 6.1 7 Sur 15 Sur 0 -- -- 90
2020-04-04 02:00:00 5.9 3 Sudeste 13 Sudeste 0 -- -- 88
2020-04-04 01:00:00 7.1 6 Sur 13 Sur 0 -- -- 82
2020-04-04 00:00:00 7.5 7 Sur 16 Sur 0 -- -- 77
2020-04-03 23:00:00 8.1 9 Sudeste 17 Sur 0 -- -- 75
2020-04-03 22:00:00 8.5 8 Sudeste 17 Sudeste 0 -- -- 76
2020-04-03 21:00:00 9.2 10 Sudeste 16 Sudeste 0 -- -- 74
2020-04-03 20:00:00 11.1 6 Este 20 Este 0 -- -- 70
2020-04-03 19:00:00 12.3 11 Nordeste 26 Este 0 -- -- 67
2020-04-03 18:00:00 12.6 17 Nordeste 28 Este 0 -- -- 67
2020-04-03 17:00:00 12.9 15 Nordeste 30 Nordeste 0 -- -- 67
2020-04-03 16:00:00 12.6 19 Nordeste 31 Nordeste 0 -- -- 60
2020-04-03 15:00:00 13.1 14 Nordeste 19 Nordeste 0 -- -- 61
2020-04-03 14:00:00 12.7 11 Nordeste 16 Nordeste 0 -- -- 60
2020-04-03 13:00:00 11.9 5 Norte 9 Norte 0 -- -- 58
2020-04-03 12:00:00 10.7 5 Noroeste 10 Oeste 0 -- -- 62
2020-04-03 11:00:00 10.7 5 Sur 15 Sur 0 -- -- 81
2020-04-03 10:00:00 7.9 9 Sur 16 Sur 0 -- -- 90
2020-04-03 09:00:00 6 9 Sur 15 Sur 0 -- -- 95
2020-04-03 08:00:00 4.7 9 Sur 13 Sur 0 -- -- 95
2020-04-03 07:00:00 4.9 9 Sur 13 Sur 0 -- -- 94
2020-04-03 06:00:00 5.5 8 Sur 12 Sur 0 -- -- 93
2020-04-03 05:00:00 6.1 8 Sur 10 Sur 0 -- -- 89
2020-04-03 04:00:00 7.7 4 Sur 13 Noroeste 0 -- -- 79
2020-04-03 03:00:00 9.3 6 Noroeste 16 Noroeste 0 -- -- 72
2020-04-03 02:00:00 9.7 6 Noroeste 17 Norte 0 -- -- 73
2020-04-03 01:00:00 10 8 Noroeste 18 Noroeste 0 -- -- 73
2020-04-03 00:00:00 10.1 8 Noroeste 20 Noroeste 0 -- -- 70
2020-04-02 23:00:00 10.3 9 Noroeste 21 Norte 0 -- -- 67
2020-04-02 22:00:00 10.2 8 Noroeste 21 Oeste 0 -- -- 67
2020-04-02 21:00:00 10.5 10 Noroeste 21 Norte 0 -- -- 72
2020-04-02 20:00:00 10.7 11 Noroeste 21 Noroeste 0 -- -- 77
2020-04-02 19:00:00 11.6 11 Noroeste 21 Noroeste 0 -- -- 77
2020-04-02 18:00:00 12.3 9 Noroeste 22 Norte 0 -- -- 76
2020-04-02 17:00:00 12.6 9 Norte 21 Noroeste 0 -- -- 75
2020-04-02 16:00:00 12.8 8 Norte 20 Norte 0 -- -- 79
2020-04-02 15:00:00 13.2 8 Norte 19 Norte 0 -- -- 83
2020-04-02 14:00:00 12.6 12 Nordeste 20 Nordeste 0 -- -- 92
2020-04-02 13:00:00 13 8 Norte 15 Norte 0 -- -- 96
2020-04-02 12:00:00 12.4 12 Noroeste 19 Oeste 0 -- -- 96
2020-04-02 11:00:00 11.8 9 Noroeste 21 Noroeste 0 -- -- 97
2020-04-02 10:00:00 11.4 10 Noroeste 20 Noroeste 0 -- -- 97
2020-04-02 09:00:00 11.4 10 Noroeste 22 Noroeste 0.6 -- -- 97
2020-04-02 08:00:00 11.4 8 Noroeste 19 Noroeste 0.2 -- -- 96
2020-04-02 07:00:00 11.4 10 Noroeste 18 Noroeste 0 -- -- 96
2020-04-02 06:00:00 11.4 9 Noroeste 20 Noroeste 0 -- -- 96
2020-04-02 05:00:00 11.4 4 Noroeste 10 Noroeste 0 -- -- 93
2020-04-02 04:00:00 11.4 2 Oeste 10 Oeste 0 -- -- 93
2020-04-02 03:00:00 11.2 2 Oeste 8 Sudeste 0 -- -- 93
2020-04-02 02:00:00 12 0 Calma 10 Nordeste 0 -- -- 91
2020-04-02 01:00:00 11.8 6 Sudeste 10 Sur 0 -- -- 86
2020-04-02 00:00:00 12.4 5 Sur 14 Sudeste 0 -- -- 82
2020-04-01 23:00:00 12.8 5 Sudeste 15 Sudeste 0 -- -- 81
2020-04-01 22:00:00 12.8 11 Este 17 Este 0 -- -- 79
2020-04-01 21:00:00 13.3 6 Este 18 Este 0 -- -- 73
2020-04-01 20:00:00 14.6 4 Sudeste 13 Sudeste 0 -- -- 64
2020-04-01 19:00:00 15.1 7 Sur 20 Sur 0 -- -- 60
2020-04-01 18:00:00 16.3 10 Sur 22 Sudeste 0 -- -- 57
2020-04-01 17:00:00 16.1 9 Sur 22 Sudeste 0 -- -- 57
2020-04-01 16:00:00 16.7 9 Sur 21 Sur 0 -- -- 57
2020-04-01 15:00:00 15.4 12 Sur 25 Sudoeste 0 -- -- 60
2020-04-01 14:00:00 14.7 11 Sudeste 29 Sudeste 0 -- -- 64
2020-04-01 13:00:00 15.4 13 Sudeste 30 Sudeste 0 -- -- 62
2020-04-01 12:00:00 15.2 11 Sur 24 Sudeste 0 -- -- 67
2020-04-01 11:00:00 13.2 8 Sudeste 16 Sur 0 -- -- 81
2020-04-01 10:00:00 11.2 5 Sudeste 17 Sur 0 -- -- 89
2020-04-01 09:00:00 10.1 7 Sudeste 17 Sur 0.2 -- -- 94
2020-04-01 08:00:00 9.2 4 Sudeste 13 Este 0.2 -- -- 93
2020-04-01 07:00:00 8.6 5 Sudeste 13 Sudeste 0 -- -- 94
2020-04-01 06:00:00 8.3 7 Sudeste 13 Sudeste 0 -- -- 94
2020-04-01 05:00:00 8.2 6 Sudeste 10 Sudeste 0 -- -- 96
2020-04-01 04:00:00 7.3 3 Sur 6 Sur 0 -- -- 96
2020-04-01 03:00:00 7 0 Calma 6 Sur 0 -- -- 96
2020-04-01 02:00:00 7.2 4 Sudeste 11 Sudeste 0 -- -- 96
2020-04-01 01:00:00 7.2 6 Sudeste 9 Sudeste 0 -- -- 96
2020-04-01 00:00:00 6.9 4 Sudeste 6 Sudeste 0 -- -- 96
2020-03-31 23:00:00 7 4 Sudeste 9 Sudeste 0 -- -- 95
2020-03-31 22:00:00 7.4 5 Sudeste 10 Sudeste 0 -- -- 96
2020-03-31 21:00:00 7.3 4 Sudeste 12 Sudeste 0 -- -- 95
2020-03-31 20:00:00 7.2 6 Sudeste 14 Este 0 -- -- 95
2020-03-31 19:00:00 7.2 9 Este 19 Este 0.1 -- -- 96
2020-03-31 18:00:00 7.5 8 Este 15 Este 0.2 -- -- 95
2020-03-31 17:00:00 7.8 7 Este 14 Este 0.5 -- -- 95
2020-03-31 16:00:00 7.4 8 Este 13 Este 0.3 -- -- 95
2020-03-31 15:00:00 7.6 9 Este 17 Este 0.2 -- -- 95
2020-03-31 14:00:00 6.5 12 Este 22 Sudeste 0.3 -- -- 95
2020-03-31 13:00:00 6.3 10 Sudeste 19 Sudeste 0.1 -- -- 96
2020-03-31 12:00:00 5.7 5 Sur 11 Sur 0.1 -- -- 99
2020-03-31 11:00:00 4.7 4 Sudeste 12 Sur 0.1 -- -- 99
2020-03-31 10:00:00 3.6 4 Sur 9 Sur 0 -- -- 99
2020-03-31 09:00:00 2.9 5 Sur 13 Sur 0.1 -- -- 99
2020-03-31 08:00:00 2.4 8 Sur 15 Sur 0 -- -- 99
2020-03-31 07:00:00 1.8 7 Sur 13 Sudeste 0 -- -- 98
2020-03-31 06:00:00 1.5 8 Sur 14 Sur 0 -- -- 98
2020-03-31 05:00:00 0.8 8 Sur 15 Sudeste 0 -- -- 98
2020-03-31 04:00:00 1.4 8 Sur 12 Sur 0 -- -- 98
2020-03-31 03:00:00 2.2 5 Sudeste 12 Sudeste 0 -- -- 98
2020-03-31 02:00:00 3.1 5 Sur 8 Sudeste 0.1 -- -- 98
2020-03-31 01:00:00 3.4 4 Sur 12 Sudeste 0 -- -- 98
2020-03-31 00:00:00 3.3 6 Sudeste 11 Sur 0 -- -- 99
2020-03-30 23:00:00 2.9 5 Sur 8 Sudeste 0.2 -- -- 98
2020-03-30 22:00:00 3.3 7 Sur 11 Sur 0.6 -- -- 98
2020-03-30 21:00:00 3.9 6 Sudeste 11 Sudeste 0.5 -- -- 98
2020-03-30 20:00:00 4.3 6 Sudeste 12 Este 0 -- -- 97
2020-03-30 19:00:00 4.4 4 Sudeste 10 Sudeste 0 -- -- 97
2020-03-30 18:00:00 4.2 0 Calma 27 Noroeste 2.4 -- -- 97
2020-03-30 17:00:00 4.2 12 Noroeste 26 Noroeste 0.6 -- -- 95
2020-03-30 16:00:00 5.6 2 Noroeste 28 Nordeste 0.2 -- -- 87
2020-03-30 15:00:00 6.6 12 Norte 34 Norte 0 -- -- 79
2020-03-30 14:00:00 7.5 12 Nordeste 28 Nordeste 0 -- -- 76
2020-03-30 13:00:00 7.2 16 Nordeste 35 Este 0 -- -- 84
2020-03-30 12:00:00 6.9 14 Nordeste 38 Este 0 -- -- 73
2020-03-30 11:00:00 5.9 8 Norte 49 Nordeste 0.1 -- -- 81
2020-03-30 10:00:00 5.3 12 Este 27 Nordeste 0 -- -- 83
2020-03-30 09:00:00 3.6 19 Nordeste 42 Este 0.3 -- -- 92
2020-03-30 08:00:00 4.1 10 Nordeste 38 Nordeste 0.2 -- -- 88
2020-03-30 07:00:00 5.3 23 Nordeste 41 Nordeste 0 -- -- 84
2020-03-30 06:00:00 5.4 21 Nordeste 45 Nordeste 0 -- -- 79
2020-03-30 05:00:00 4.8 2 Sudeste 14 Este 0 -- -- 95
2020-03-30 04:00:00 5.3 5 Sudeste 10 Sur 0 -- -- 95
2020-03-30 03:00:00 5.5 5 Sur 10 Sudeste 0.2 -- -- 95
2020-03-30 02:00:00 5.9 10 Este 31 Nordeste 0.6 -- -- 91
2020-03-30 01:00:00 7 17 Nordeste 34 Nordeste 0 -- -- 83
2020-03-30 00:00:00 7.3 19 Nordeste 35 Nordeste 0.1 -- -- 80
2020-03-29 23:00:00 7.6 13 Este 35 Nordeste 0 -- -- 79
2020-03-29 22:00:00 7.8 20 Nordeste 38 Nordeste 0 -- -- 80
2020-03-29 21:00:00 8.6 18 Nordeste 34 Nordeste 0 -- -- 85
2020-03-29 20:00:00 8.6 18 Nordeste 32 Norte 0 -- -- 87
2020-03-29 19:00:00 9.3 18 Nordeste 32 Nordeste 0 -- -- 89
2020-03-29 18:00:00 9.5 16 Nordeste 31 Nordeste 0 -- -- 90
2020-03-29 17:00:00 9.7 16 Nordeste 29 Nordeste 0 -- -- 93
2020-03-29 16:00:00 9.5 15 Nordeste 28 Nordeste 0.7 -- -- 96
2020-03-29 15:00:00 10.5 10 Nordeste 31 Noroeste 0.1 -- -- 93
2020-03-29 14:00:00 12.7 11 Noroeste 20 Oeste 0 -- -- 79
2020-03-29 13:00:00 12.2 10 Noroeste 18 Noroeste 0 -- -- 82
2020-03-29 12:00:00 11.1 9 Noroeste 16 Oeste 0 -- -- 84
2020-03-29 11:00:00 11.1 3 Sudeste 11 Sur 0 -- -- 84
2020-03-29 10:00:00 7.7 8 Sudeste 15 Sudeste 0 -- -- 89
2020-03-29 09:00:00 5.9 9 Sur 15 Sur 0 -- -- 92
2020-03-29 08:00:00 5 10 Sur 15 Sur 0 -- -- 92
2020-03-29 07:00:00 5.6 10 Sur 14 Sur 0 -- -- 91
2020-03-29 06:00:00 5.5 9 Sur 13 Sur 0 -- -- 92
2020-03-29 05:00:00 6 9 Sur 13 Sur 0 -- -- 91
2020-03-29 03:00:00 6.9 9 Sur 11 Sur 0 -- -- 89
2020-03-29 01:00:00 7.3 8 Sur 10 Sudeste 0 -- -- 88
2020-03-29 00:00:00 7.8 7 Sur 9 Sur 0 -- -- 85
2020-03-28 23:00:00 8.3 5 Sur 6 Sudeste 0 -- -- 82
2020-03-28 22:00:00 9.6 0 Calma 7 Este 0 -- -- 79
2020-03-28 21:00:00 9.9 5 Este 9 Nordeste 0 -- -- 79
2020-03-28 20:00:00 10.5 5 Nordeste 17 Nordeste 0 -- -- 78
2020-03-28 19:00:00 11.9 10 Nordeste 21 Nordeste 0 -- -- 67
2020-03-28 18:00:00 12.7 13 Nordeste 22 Nordeste 0 -- -- 73
2020-03-28 17:00:00 13.2 15 Nordeste 26 Nordeste 0 -- -- 73
2020-03-28 16:00:00 14 13 Nordeste 22 Nordeste 0 -- -- 70
2020-03-28 15:00:00 14 13 Nordeste 21 Nordeste 0 -- -- 73
2020-03-28 14:00:00 13.6 12 Nordeste 18 Nordeste 0 -- -- 76
2020-03-28 13:00:00 14 10 Nordeste 15 Norte 0 -- -- 76
2020-03-28 12:00:00 13.3 7 Nordeste 12 Nordeste 0 -- -- 73
2020-03-28 11:00:00 12.6 4 Sudeste 13 Sudeste 0 -- -- 64
2020-03-28 10:00:00 10 9 Sur 17 Sudeste 0 -- -- 74
2020-03-28 09:00:00 7.8 9 Sur 17 Sur 0 -- -- 84
2020-03-28 08:00:00 5.5 11 Sur 17 Sur 0 -- -- 92
2020-03-28 07:00:00 4.5 10 Sur 16 Sur 0 -- -- 93
2020-03-28 06:00:00 4.8 10 Sur 15 Sur 0 -- -- 93
2020-03-28 05:00:00 4.9 9 Sur 14 Sur 0 -- -- 93
2020-03-28 04:00:00 5.3 9 Sur 14 Sur 0 -- -- 93
2020-03-28 03:00:00 5.4 9 Sur 13 Sur 0 -- -- 93
2020-03-28 02:00:00 5.8 7 Sur 13 Sudeste 0 -- -- 92
2020-03-28 01:00:00 6.5 8 Sur 12 Sur 0 -- -- 90
2020-03-28 00:00:00 6.8 8 Sur 10 Sudeste 0 -- -- 88
2020-03-27 23:00:00 7.3 6 Sur 9 Sur 0 -- -- 85
2020-03-27 22:00:00 8 4 Sudeste 6 Sudeste 0 -- -- 82
2020-03-27 21:00:00 8.2 3 Sur 11 Este 0 -- -- 78
2020-03-27 20:00:00 9 7 Este 19 Este 0 -- -- 76
2020-03-27 19:00:00 10.7 13 Este 24 Nordeste 0 -- -- 69
2020-03-27 18:00:00 11.3 17 Este 27 Nordeste 0 -- -- 64
2020-03-27 17:00:00 12 15 Nordeste 26 Nordeste 0 -- -- 71
2020-03-27 16:00:00 12.5 15 Nordeste 26 Nordeste 0 -- -- 64
2020-03-27 15:00:00 12.9 12 Nordeste 24 Nordeste 0 -- -- 66
2020-03-27 14:00:00 12.4 10 Nordeste 18 Nordeste 0 -- -- 67
2020-03-27 13:00:00 12 9 Nordeste 15 Nordeste 0 -- -- 63
2020-03-27 12:00:00 11 5 Noroeste 11 Noroeste 0 -- -- 57
2020-03-27 11:00:00 11.2 4 Sur 13 Sur 0 -- -- 60
2020-03-27 10:00:00 8.9 8 Sudeste 16 Sudeste 0 -- -- 73
2020-03-27 09:00:00 5.9 10 Sudeste 18 Sudeste 0 -- -- 82
2020-03-27 08:00:00 3.9 9 Sur 16 Sur 0 -- -- 88
2020-03-27 07:00:00 3 10 Sur 15 Sudeste 0 -- -- 89
2020-03-27 06:00:00 3.3 10 Sur 16 Sur 0 -- -- 86
2020-03-27 05:00:00 3.7 10 Sur 14 Sur 0 -- -- 85
2020-03-27 04:00:00 4.2 10 Sur 13 Sur 0 -- -- 83
2020-03-27 03:00:00 4.5 9 Sur 13 Sur 0 -- -- 80
2020-03-27 02:00:00 5.1 7 Sur 10 Sur 0 -- -- 76
2020-03-27 01:00:00 6.8 5 Sur 13 Nordeste 0 -- -- 63
2020-03-27 00:00:00 8.5 8 Nordeste 22 Nordeste 0 -- -- 55
2020-03-26 23:00:00 9 10 Nordeste 21 Nordeste 0 -- -- 57
2020-03-26 22:00:00 8.7 7 Nordeste 17 Nordeste 0 -- -- 56
2020-03-26 21:00:00 8.9 6 Noroeste 21 Norte 0 -- -- 57
2020-03-26 20:00:00 8.7 9 Nordeste 30 Nordeste 0 -- -- 51
2020-03-26 19:00:00 9.3 9 Norte 27 Norte 0 -- -- 54
2020-03-26 18:00:00 9.9 9 Norte 32 Norte 0 -- -- 51
2020-03-26 17:00:00 10 12 Norte 28 Nordeste 0 -- -- 54
2020-03-26 16:00:00 10.8 13 Norte 32 Nordeste 0 -- -- 49
2020-03-26 15:00:00 11.8 13 Norte 33 Norte 0 -- -- 48
2020-03-26 14:00:00 11.7 12 Norte 31 Norte 0 -- -- 48
2020-03-26 13:00:00 11.2 18 Nordeste 36 Nordeste 0 -- -- 51
2020-03-26 12:00:00 11.5 20 Nordeste 40 Nordeste 0 -- -- 54
2020-03-26 11:00:00 11.5 23 Nordeste 44 Norte 0 -- -- 52
2020-03-26 10:00:00 11.4 18 Nordeste 40 Norte 0 -- -- 60
2020-03-26 09:00:00 10.8 14 Noroeste 41 Noroeste 0 -- -- 60
2020-03-26 08:00:00 10.7 18 Noroeste 43 Norte 0 -- -- 65
2020-03-26 07:00:00 10 22 Noroeste 44 Noroeste 0 -- -- 79
2020-03-26 06:00:00 9.8 27 Noroeste 44 Noroeste 0 -- -- 78
2020-03-26 05:00:00 9.7 27 Noroeste 42 Noroeste 0 -- -- 77
2020-03-26 04:00:00 9.7 27 Noroeste 42 Noroeste 0 -- -- 74
2020-03-26 03:00:00 9.8 23 Noroeste 39 Noroeste 0 -- -- 73
2020-03-26 02:00:00 9.8 14 Noroeste 25 Oeste 0 -- -- 74
2020-03-26 01:00:00 9.8 12 Oeste 30 Oeste 0 -- -- 73
2020-03-26 00:00:00 9.5 14 Oeste 25 Oeste 0 -- -- 74
2020-03-25 23:00:00 9.7 11 Oeste 22 Oeste 0 -- -- 74
2020-03-25 22:00:00 9.6 12 Noroeste 21 Noroeste 0 -- -- 70
2020-03-25 21:00:00 9.8 13 Noroeste 24 Noroeste 0 -- -- 68
2020-03-25 20:00:00 9.6 12 Noroeste 21 Noroeste 0 -- -- 67
2020-03-25 19:00:00 10.1 9 Noroeste 24 Norte 0 -- -- 73
2020-03-25 18:00:00 11.4 10 Norte 29 Noroeste 0 -- -- 70
2020-03-25 17:00:00 12.2 10 Noroeste 22 Noroeste 0 -- -- 59
2020-03-25 16:00:00 12.7 8 Noroeste 19 Norte 0 -- -- 64
2020-03-25 15:00:00 13.2 8 Norte 21 Norte 0 -- -- 66
2020-03-25 14:00:00 13.2 10 Nordeste 23 Nordeste 0 -- -- 71
2020-03-25 13:00:00 13.4 10 Nordeste 26 Noroeste 0 -- -- 83
2020-03-25 12:00:00 12.5 14 Noroeste 25 Noroeste 0 -- -- 94
2020-03-25 11:00:00 11.9 9 Noroeste 19 Noroeste 0 -- -- 95
2020-03-25 10:00:00 11.5 3 Noroeste 10 Noroeste 0 -- -- 94
2020-03-25 09:00:00 9.7 7 Sur 13 Sudeste 0 -- -- 95
2020-03-25 08:00:00 7.5 8 Sur 13 Sur 0 -- -- 96
2020-03-25 07:00:00 7 9 Sur 14 Sur 0 -- -- 96
2020-03-25 06:00:00 7.5 9 Sur 13 Sur 0 -- -- 96
2020-03-25 05:00:00 7.9 8 Sur 12 Sur 0 -- -- 96
2020-03-25 04:00:00 8.3 9 Sur 13 Sudeste 0 -- -- 96
2020-03-25 03:00:00 8.4 8 Sur 11 Sur 0 -- -- 96
2020-03-25 02:00:00 9.1 7 Sur 10 Sur 0 -- -- 96
2020-03-25 01:00:00 9.5 4 Sur 5 Sur 0 -- -- 96
2020-03-25 00:00:00 10.1 0 Calma 3 Sudoeste 0 -- -- 96
2020-03-24 23:00:00 11.1 2 Oeste 9 Oeste 0 -- -- 96
2020-03-24 22:00:00 11.6 5 Oeste 7 Sudoeste 0 -- -- 95
2020-03-24 21:00:00 11.4 3 Sudoeste 7 Este 0 -- -- 91
2020-03-24 20:00:00 12.2 5 Nordeste 13 Nordeste 0 -- -- 90
2020-03-24 19:00:00 13.2 9 Nordeste 16 Nordeste 0 -- -- 89
2020-03-24 18:00:00 15.6 7 Norte 17 Nordeste 0 -- -- 69
2020-03-24 17:00:00 16.1 11 Nordeste 24 Este 0 -- -- 71
2020-03-24 16:00:00 16.1 13 Nordeste 27 Nordeste 0 -- -- 74
2020-03-24 15:00:00 16.8 13 Nordeste 22 Nordeste 0 -- -- 72
2020-03-24 14:00:00 16.1 10 Nordeste 19 Nordeste 0 -- -- 82
2020-03-24 13:00:00 16.3 7 Nordeste 17 Nordeste 0 -- -- 72
2020-03-24 12:00:00 15.1 4 Noroeste 11 Nordeste 0 -- -- 82
2020-03-24 11:00:00 15.7 4 Nordeste 17 Sudeste 0 -- -- 73
2020-03-24 10:00:00 13.8 6 Sudeste 10 Sur 0 -- -- 89
2020-03-24 09:00:00 10.9 3 Sur 7 Sudeste 0 -- -- 97
2020-03-24 08:00:00 9.3 3 Sur 12 Sur 0 -- -- 97
2020-03-24 07:00:00 8.7 9 Sur 16 Sur 0 -- -- 97
2020-03-24 06:00:00 8.7 8 Sur 14 Sur 0 -- -- 97
2020-03-24 05:00:00 8.7 8 Sur 12 Sur 0 -- -- 97
2020-03-24 04:00:00 9.1 5 Sur 8 Sur 0 -- -- 96
2020-03-24 03:00:00 9.8 5 Sudeste 6 Sudeste 0 -- -- 96
2020-03-24 02:00:00 10 4 Sur 7 Sudoeste 0 -- -- 94
2020-03-24 01:00:00 10.7 0 Calma 8 Sudeste 0 -- -- 93
2020-03-24 00:00:00 12 3 Sudeste 15 Sudeste 0 -- -- 92
2020-03-23 23:00:00 12.3 8 Sudeste 19 Sudeste 0 -- -- 92
2020-03-23 22:00:00 12.3 8 Sudeste 20 Sudeste 0 -- -- 92
2020-03-23 21:00:00 12.1 7 Este 14 Sudeste 0 -- -- 91
2020-03-23 20:00:00 12.2 9 Este 14 Este 0 -- -- 89
2020-03-23 19:00:00 12.8 5 Este 18 Este 0 -- -- 88
2020-03-23 18:00:00 13.6 13 Este 27 Nordeste 0 -- -- 82
2020-03-23 17:00:00 14.9 14 Este 23 Nordeste 0 -- -- 75
2020-03-23 16:00:00 14.1 14 Nordeste 25 Nordeste 0 -- -- 81
2020-03-23 15:00:00 14.5 10 Nordeste 23 Nordeste 0 -- -- 80
2020-03-23 14:00:00 14 14 Nordeste 20 Nordeste 0 -- -- 85
2020-03-23 13:00:00 13.2 9 Nordeste 15 Nordeste 0 -- -- 85
2020-03-23 12:00:00 12.7 5 Nordeste 8 Nordeste 0 -- -- 90
2020-03-23 11:00:00 12.7 3 Nordeste 8 Nordeste 0 -- -- 92
2020-03-23 10:00:00 12.2 3 Nordeste 8 Nordeste 0 -- -- 94
2020-03-23 09:00:00 11.4 0 Calma 5 Sur 0 -- -- 95
2020-03-23 08:00:00 10.9 2 Sur 8 Noroeste 0 -- -- 95
2020-03-23 07:00:00 11.1 5 Noroeste 10 Noroeste 0 -- -- 94
2020-03-23 06:00:00 11.2 0 Calma 5 Sudeste 0 -- -- 93
2020-03-23 05:00:00 11.3 0 Calma 5 Nordeste 0 -- -- 93
2020-03-23 04:00:00 11.2 4 Nordeste 11 Nordeste 0 -- -- 94
2020-03-23 03:00:00 11.4 5 Nordeste 11 Nordeste 0 -- -- 95
2020-03-23 02:00:00 11.3 4 Norte 10 Norte 0 -- -- 95
2020-03-23 01:00:00 11.4 3 Nordeste 13 Nordeste 0 -- -- 95
2020-03-23 00:00:00 11.6 4 Norte 15 Noroeste 0 -- -- 94
2020-03-22 23:00:00 12 2 Oeste 12 Noroeste 0 -- -- 93
2020-03-22 22:00:00 12.1 4 Noroeste 15 Noroeste 0 -- -- 93
2020-03-22 21:00:00 12.3 6 Noroeste 20 Norte 0 -- -- 94
2020-03-22 20:00:00 12.4 7 Noroeste 18 Noroeste 0 -- -- 95
2020-03-22 19:00:00 12.7 8 Noroeste 17 Norte 0 -- -- 95
2020-03-22 18:00:00 13.7 8 Noroeste 18 Noroeste 0 -- -- 91
2020-03-22 17:00:00 14.5 8 Norte 16 Norte 0 -- -- 87
2020-03-22 16:00:00 14.7 8 Norte 17 Noroeste 0 -- -- 84
2020-03-22 15:00:00 14.4 7 Noroeste 18 Noroeste 0 -- -- 82
2020-03-22 14:00:00 13.6 10 Noroeste 23 Noroeste 0 -- -- 86
2020-03-22 13:00:00 14.4 7 Noroeste 17 Norte 0 -- -- 86
2020-03-22 12:00:00 14 5 Norte 11 Noroeste 0 -- -- 84
2020-03-22 11:00:00 13.1 5 Noroeste 10 Sudoeste 0 -- -- 86
2020-03-22 10:00:00 11.9 6 Sudoeste 15 Sudoeste 0 -- -- 96
2020-03-22 09:00:00 10.1 3 Sudeste 9 Sur 0 -- -- 97
2020-03-22 08:00:00 9.2 5 Sur 9 Sur 0 -- -- 96
2020-03-22 07:00:00 8.9 6 Sur 9 Sur 0 -- -- 96
2020-03-22 06:00:00 9.2 4 Sur 8 Sur 0 -- -- 96
2020-03-22 05:00:00 9.1 6 Sudeste 9 Sur 0 -- -- 96
2020-03-22 04:00:00 9.4 4 Sur 7 Sur 0 -- -- 96
2020-03-22 03:00:00 10.2 0 Calma 6 Noroeste 0 -- -- 95
2020-03-22 02:00:00 10.8 3 Oeste 18 Oeste 0 -- -- 95
2020-03-22 01:00:00 11.1 10 Noroeste 19 Oeste 0 -- -- 95
2020-03-22 00:00:00 11.4 11 Noroeste 17 Noroeste 0 -- -- 95
2020-03-21 23:00:00 11.6 11 Noroeste 21 Noroeste 0 -- -- 95
2020-03-21 22:00:00 12.3 11 Oeste 25 Oeste 0 -- -- 92
2020-03-21 21:00:00 13.1 7 Oeste 11 Noroeste 0 -- -- 85
2020-03-21 20:00:00 13.6 4 Oeste 10 Oeste 0 -- -- 75
2020-03-21 19:00:00 16 5 Sur 8 Sur 0 -- -- 68
2020-03-21 18:00:00 17.3 3 Nordeste 14 Nordeste 0 -- -- 60
2020-03-21 17:00:00 17.6 10 Nordeste 19 Este 0 -- -- 59
2020-03-21 16:00:00 18.1 8 Nordeste 15 Nordeste 0 -- -- 59
2020-03-21 15:00:00 17.4 7 Norte 13 Nordeste 0 -- -- 60
2020-03-21 14:00:00 19.1 3 Sur 22 Sur 0 -- -- 50
2020-03-21 13:00:00 19.2 9 Sur 27 Sudoeste 0 -- -- 52
2020-03-21 12:00:00 17.7 10 Sur 24 Sur 0 -- -- 56
2020-03-21 11:00:00 16.2 14 Sur 29 Sur 0 -- -- 57
2020-03-21 10:00:00 14.9 15 Sur 34 Sur 0 -- -- 58
2020-03-21 09:00:00 13.8 15 Sur 29 Sur 0 -- -- 60
2020-03-21 08:00:00 12.5 11 Sur 23 Sur 0 -- -- 64
2020-03-21 07:00:00 12.9 11 Sur 22 Sudeste 0 -- -- 66
2020-03-21 06:00:00 12.6 10 Sur 21 Sur 0 -- -- 69
2020-03-21 05:00:00 12.7 10 Sur 18 Sur 0 -- -- 70
2020-03-21 04:00:00 12.7 8 Sur 20 Sur 0 -- -- 70
2020-03-21 03:00:00 13 8 Sur 17 Sur 0 -- -- 69
2020-03-21 02:00:00 13.3 8 Sur 19 Sur 0 -- -- 68
2020-03-21 01:00:00 13.9 10 Sur 20 Sudeste 0 -- -- 66
2020-03-21 00:00:00 14.4 10 Sur 21 Sudeste 0 -- -- 64
2020-03-20 23:00:00 14.4 8 Sur 19 Sur 0 -- -- 63
2020-03-20 22:00:00 14.7 9 Sur 20 Sur 0 -- -- 61
2020-03-20 21:00:00 15 10 Sur 20 Sur 0 -- -- 61
2020-03-20 20:00:00 15.4 9 Sudeste 21 Sudeste 0 -- -- 57
2020-03-20 19:00:00 16.2 9 Sudeste 22 Sur 0 -- -- 52
2020-03-20 18:00:00 16.9 8 Sudeste 25 Sudeste 0 -- -- 48
2020-03-20 17:00:00 18.4 11 Sudeste 26 Este 0 -- -- 43
2020-03-20 16:00:00 18.6 10 Sudeste 27 Sudeste 0 -- -- 40
2020-03-20 15:00:00 19.9 8 Sur 26 Sur 0 -- -- 39
2020-03-20 14:00:00 19.8 11 Sur 24 Sudeste 0 -- -- 38
2020-03-20 13:00:00 18.8 8 Sudeste 19 Sur 0 -- -- 40
2020-03-20 12:00:00 16.6 9 Sudeste 24 Sur 0 -- -- 42
2020-03-20 11:00:00 15.6 8 Sudeste 19 Sur 0 -- -- 43
2020-03-20 10:00:00 13.5 8 Sur 21 Sur 0 -- -- 48
2020-03-20 09:00:00 13.3 11 Sur 26 Sudeste 0 -- -- 48
2020-03-20 08:00:00 12.3 9 Sur 19 Sur 0 -- -- 48
2020-03-20 07:00:00 11.9 7 Este 24 Sur 0 -- -- 49
2020-03-20 06:00:00 12.7 13 Sur 26 Sur 0 -- -- 47
2020-03-20 05:00:00 12.7 13 Sur 28 Sur 0 -- -- 52
2020-03-20 04:00:00 12.6 8 Sudeste 21 Sudeste 0 -- -- 59
2020-03-20 03:00:00 12.8 10 Sur 23 Sur 0 -- -- 64
2020-03-20 02:00:00 12.7 7 Sur 16 Sur 0 -- -- 73
2020-03-20 01:00:00 11.4 5 Sur 12 Sur 0 -- -- 83
2020-03-20 00:00:00 10.9 6 Sur 12 Sur 0 -- -- 94
2020-03-19 23:00:00 10.2 4 Sur 14 Sur 0 -- -- 97
2020-03-19 22:00:00 9.9 2 Sur 7 Oeste 0 -- -- 98
2020-03-19 21:00:00 10.6 3 Oeste 6 Oeste 0 -- -- 98
2020-03-19 20:00:00 11.1 3 Noroeste 9 Oeste 0 -- -- 97
2020-03-19 19:00:00 11.4 0 Calma 9 Noroeste 0 -- -- 97
2020-03-19 18:00:00 11.6 5 Noroeste 13 Noroeste 0 -- -- 96
2020-03-19 17:00:00 11.8 9 Noroeste 17 Oeste 0 -- -- 96
2020-03-19 16:00:00 13.1 12 Oeste 17 Oeste 0 -- -- 92
2020-03-19 15:00:00 15.8 6 Noroeste 10 Oeste 0 -- -- 79
2020-03-19 14:00:00 15.8 5 Norte 9 Norte 0 -- -- 82
2020-03-19 13:00:00 14.8 6 Norte 10 Sur 0 -- -- 87
2020-03-19 12:00:00 16 5 Sur 17 Sur 0 -- -- 79
2020-03-19 11:00:00 13.4 6 Sur 16 Sur 0 -- -- 97
2020-03-19 10:00:00 11 2 Sudeste 8 Sudeste 0 -- -- 98
2020-03-19 09:00:00 10.4 0 Calma 5 Sudeste 0 -- -- 98
2020-03-19 08:00:00 10.5 0 Calma 5 Oeste 0 -- -- 98
2020-03-19 07:00:00 10.5 0 Calma 5 Noroeste 0 -- -- 98
2020-03-19 06:00:00 10.5 3 Oeste 5 Oeste 0 -- -- 98
2020-03-19 05:00:00 10.5 0 Calma 6 Noroeste 0 -- -- 98
2020-03-19 04:00:00 10.6 3 Noroeste 8 Noroeste 0 -- -- 98
2020-03-19 03:00:00 10.6 3 Noroeste 7 Noroeste 0 -- -- 98
2020-03-19 02:00:00 10 0 Calma 7 Sudeste 0 -- -- 98
2020-03-19 01:00:00 10.5 4 Sur 9 Sur 0 -- -- 97
2020-03-19 00:00:00 11.1 3 Sudeste 9 Sur 0 -- -- 97
2020-03-18 23:00:00 11.4 0 Calma 4 Noroeste 0 -- -- 97
2020-03-18 22:00:00 11.5 3 Noroeste 9 Noroeste 0 -- -- 97
2020-03-18 21:00:00 11.8 6 Noroeste 9 Oeste 0 -- -- 97
2020-03-18 20:00:00 11.5 3 Oeste 7 Noroeste 0 -- -- 96
2020-03-18 19:00:00 11.9 5 Noroeste 9 Noroeste 0 -- -- 96
2020-03-18 18:00:00 12.2 6 Noroeste 14 Oeste 0 -- -- 96
2020-03-18 17:00:00 12 8 Noroeste 12 Noroeste 0 -- -- 96
2020-03-18 16:00:00 12.5 5 Noroeste 13 Noroeste 0 -- -- 96
2020-03-18 15:00:00 12.5 8 Noroeste 14 Noroeste 0 -- -- 96
2020-03-18 14:00:00 12.4 6 Noroeste 12 Noroeste 0 -- -- 96
2020-03-18 13:00:00 12.3 5 Norte 12 Norte 0 -- -- 96
2020-03-18 12:00:00 12.4 6 Noroeste 12 Oeste 0 -- -- 96
2020-03-18 11:00:00 12.3 5 Oeste 8 Noroeste 0 -- -- 95
2020-03-18 10:00:00 11.9 0 Calma 8 Sur 0 -- -- 96
2020-03-18 09:00:00 11.2 4 Sur 12 Sur 0 -- -- 96
2020-03-18 08:00:00 10.1 5 Sur 12 Sur 0 -- -- 96
2020-03-18 07:00:00 10.4 6 Sur 15 Sudeste 0 -- -- 97
2020-03-18 06:00:00 9.9 9 Sur 17 Sur 0 -- -- 97
2020-03-18 05:00:00 10 9 Sur 19 Sur 0 -- -- 97
2020-03-18 04:00:00 10 10 Sur 18 Sudeste 0 -- -- 97
2020-03-18 03:00:00 9.8 10 Sur 19 Sur 0 -- -- 97
2020-03-18 02:00:00 9.6 8 Sur 17 Sur 0 -- -- 97
2020-03-18 01:00:00 9.6 8 Sur 15 Sur 0 -- -- 97
2020-03-18 00:00:00 9.7 7 Sur 12 Sur 0 -- -- 97
2020-03-17 23:00:00 10.1 6 Sur 12 Sur 0 -- -- 97
2020-03-17 22:00:00 10.2 5 Sur 8 Sur 0 -- -- 97
2020-03-17 21:00:00 10.6 2 Sur 4 Sur 0 -- -- 97
2020-03-17 20:00:00 10.9 0 Calma 2 Sudeste 0 -- -- 97
2020-03-17 19:00:00 11.6 0 Calma 5 Noroeste 0 -- -- 97
2020-03-17 18:00:00 12.1 2 Norte 6 Norte 0 -- -- 97
2020-03-17 17:00:00 11.7 2 Norte 8 Oeste 0 -- -- 97
2020-03-17 16:00:00 11 5 Noroeste 7 Noroeste 0 -- -- 97
2020-03-17 15:00:00 11.2 0 Calma 10 Noroeste 0 -- -- 97
2020-03-17 14:00:00 10.9 6 Noroeste 11 Oeste 0 -- -- 97
2020-03-17 13:00:00 11.3 8 Noroeste 11 Noroeste 0 -- -- 97
2020-03-17 12:00:00 10.9 8 Noroeste 12 Noroeste 0 -- -- 97
2020-03-17 11:00:00 11.2 6 Noroeste 11 Nordeste 0 -- -- 97
2020-03-17 10:00:00 11.3 5 Nordeste 11 Nordeste 0 -- -- 97
2020-03-17 09:00:00 11 0 Calma 9 Nordeste 0.1 -- -- 97
2020-03-17 08:00:00 11 3 Nordeste 15 Nordeste 0 -- -- 97
2020-03-17 07:00:00 10.9 6 Nordeste 11 Nordeste 0 -- -- 97
2020-03-17 06:00:00 10.6 0 Calma 18 Norte 0.3 -- -- 97
2020-03-17 05:00:00 10.6 6 Norte 18 Noroeste 0.3 -- -- 96
2020-03-17 04:00:00 10.3 7 Norte 31 Nordeste 0 -- -- 96
2020-03-17 03:00:00 10.8 8 Norte 23 Noroeste 0 -- -- 96
2020-03-17 02:00:00 10.8 8 Norte 23 Norte 0.1 -- -- 96
2020-03-17 01:00:00 10.4 10 Norte 23 Nordeste 0.3 -- -- 96
2020-03-17 00:00:00 10.3 9 Noroeste 27 Norte 0 -- -- 96
2020-03-16 23:00:00 10.8 8 Norte 24 Norte 0 -- -- 94
2020-03-16 22:00:00 10.8 10 Norte 32 Noroeste 0 -- -- 93
2020-03-16 21:00:00 10.3 14 Nordeste 31 Nordeste 0.1 -- -- 94
2020-03-16 20:00:00 10.5 17 Nordeste 31 Nordeste 0 -- -- 92
2020-03-16 19:00:00 10.6 16 Nordeste 36 Nordeste 0 -- -- 92
2020-03-16 18:00:00 10.4 19 Nordeste 36 Nordeste 0 -- -- 93
2020-03-16 17:00:00 9.7 15 Nordeste 29 Nordeste 0.5 -- -- 98
2020-03-16 16:00:00 9.7 17 Nordeste 34 Nordeste 2.2 -- -- 97
2020-03-16 15:00:00 10.5 13 Norte 38 Norte 0.7 -- -- 97
2020-03-16 14:00:00 10.1 12 Norte 35 Norte 0.6 -- -- 97
2020-03-16 13:00:00 9.7 17 Noroeste 40 Norte 1.3 -- -- 96
2020-03-16 12:00:00 10 14 Norte 40 Nordeste 1.3 -- -- 92
2020-03-16 11:00:00 9.3 15 Norte 45 Norte 2.1 -- -- 95
2020-03-16 10:00:00 9.1 15 Noroeste 45 Norte 4.4 -- -- 96
2020-03-16 09:00:00 9 13 Noroeste 44 Noroeste 2.8 -- -- 96
2020-03-16 08:00:00 8.2 17 Noroeste 38 Noroeste 2 -- -- 97
2020-03-16 07:00:00 7.7 19 Noroeste 39 Oeste 1.3 -- -- 96
2020-03-16 06:00:00 7.5 21 Noroeste 36 Noroeste 1.2 -- -- 96
2020-03-16 05:00:00 7.4 14 Noroeste 44 Noroeste 1.3 -- -- 96
2020-03-16 04:00:00 7.4 25 Noroeste 39 Noroeste 1.4 -- -- 96
2020-03-16 03:00:00 7.7 15 Oeste 33 Oeste 0.1 -- -- 96
2020-03-16 02:00:00 7.6 13 Noroeste 35 Noroeste 0.7 -- -- 97
2020-03-16 01:00:00 7.9 23 Noroeste 41 Noroeste 0.5 -- -- 98
2020-03-16 00:00:00 8.3 18 Noroeste 42 Noroeste 0.6 -- -- 97
2020-03-15 23:00:00 8.7 21 Noroeste 41 Noroeste 0.4 -- -- 97
2020-03-15 22:00:00 8.9 26 Noroeste 52 Oeste 0.4 -- -- 98
2020-03-15 21:00:00 8.7 27 Noroeste 64 Oeste 0.7 -- -- 98
2020-03-15 20:00:00 10.7 4 Sur 7 Noroeste 1.2 -- -- 95
2020-03-15 19:00:00 10.9 2 Oeste 22 Oeste 1.6 -- -- 95
2020-03-15 18:00:00 12.1 9 Noroeste 16 Oeste 0 -- -- 87
2020-03-15 17:00:00 12 7 Noroeste 18 Noroeste 0 -- -- 89
2020-03-15 16:00:00 12.3 10 Noroeste 21 Noroeste 0 -- -- 92
2020-03-15 15:00:00 12.5 8 Noroeste 28 Noroeste 0 -- -- 91
2020-03-15 14:00:00 13 14 Noroeste 27 Noroeste 0 -- -- 91
2020-03-15 13:00:00 12.6 13 Noroeste 26 Noroeste 0 -- -- 91
2020-03-15 12:00:00 12.5 13 Noroeste 25 Noroeste 0 -- -- 92
2020-03-15 11:00:00 12.1 11 Noroeste 23 Noroeste 0 -- -- 89
2020-03-15 10:00:00 11.5 11 Noroeste 20 Noroeste 0 -- -- 88
2020-03-15 09:00:00 13.9 10 Sur 26 Sur 0 -- -- 54
2020-03-15 08:00:00 11.8 17 Sur 32 Sur 0 -- -- 58
2020-03-15 07:00:00 11 21 Sur 32 Sur 0 -- -- 63
2020-03-15 06:00:00 9.2 15 Sur 29 Sur 0 -- -- 77
2020-03-15 05:00:00 8.3 11 Sur 22 Sudeste 0 -- -- 85
2020-03-15 04:00:00 8.2 13 Sur 21 Sur 0 -- -- 88
2020-03-15 03:00:00 8 10 Sur 20 Sur 0 -- -- 91
2020-03-15 02:00:00 7.6 10 Sur 21 Sudeste 0 -- -- 92
2020-03-15 01:00:00 7.6 13 Sudeste 26 Sur 0 -- -- 92
2020-03-15 00:00:00 7 8 Sudeste 15 Sur 0 -- -- 91
2020-03-14 23:00:00 8 7 Sur 14 Sudeste 0 -- -- 88
2020-03-14 22:00:00 8.6 7 Sur 11 Sur 0 -- -- 85
2020-03-14 21:00:00 9.1 6 Sur 10 Sur 0 -- -- 84
2020-03-14 20:00:00 9.9 5 Sudeste 8 Este 0 -- -- 81
2020-03-14 19:00:00 11.5 2 Este 12 Nordeste 0 -- -- 77
2020-03-14 18:00:00 12.9 8 Nordeste 15 Nordeste 0 -- -- 72
2020-03-14 17:00:00 13.3 8 Nordeste 20 Nordeste 0 -- -- 73
2020-03-14 16:00:00 12.7 13 Nordeste 20 Nordeste 0 -- -- 76
2020-03-14 15:00:00 13.5 9 Nordeste 14 Nordeste 0 -- -- 74
2020-03-14 14:00:00 12.9 6 Nordeste 10 Nordeste 0 -- -- 74
2020-03-14 13:00:00 12.4 5 Norte 8 Nordeste 0 -- -- 73
2020-03-14 12:00:00 11.9 4 Norte 10 Este 0 -- -- 78
2020-03-14 11:00:00 11.2 5 Sur 13 Sudeste 0 -- -- 84
2020-03-14 10:00:00 8.2 10 Sudeste 17 Sudeste 0 -- -- 90
2020-03-14 09:00:00 5.9 10 Sur 17 Sur 0 -- -- 94
2020-03-14 08:00:00 3.8 11 Sur 18 Sur 0 -- -- 95
2020-03-14 07:00:00 3.6 10 Sur 17 Sur 0 -- -- 95
2020-03-14 06:00:00 3.8 10 Sur 15 Sur 0 -- -- 95
2020-03-14 05:00:00 3.8 10 Sur 15 Sur 0 -- -- 95
2020-03-14 04:00:00 4.2 10 Sur 15 Sur 0 -- -- 95
2020-03-14 03:00:00 4.4 9 Sur 13 Sudeste 0 -- -- 95
2020-03-14 02:00:00 4.8 9 Sur 13 Sur 0 -- -- 94
2020-03-14 01:00:00 5.2 9 Sur 13 Sur 0 -- -- 93
2020-03-14 00:00:00 5.6 8 Sur 12 Sur 0 -- -- 92
2020-03-13 23:00:00 6.4 6 Sur 10 Sur 0 -- -- 89
2020-03-13 22:00:00 7.1 5 Sur 7 Sudeste 0 -- -- 85
2020-03-13 21:00:00 7.8 5 Este 7 Este 0 -- -- 84
2020-03-13 20:00:00 8.3 3 Sudeste 8 Este 0 -- -- 81
2020-03-13 19:00:00 9.6 5 Este 16 Nordeste 0 -- -- 77
2020-03-13 18:00:00 10.9 11 Nordeste 19 Nordeste 0 -- -- 75
2020-03-13 17:00:00 11.5 13 Nordeste 23 Nordeste 0 -- -- 73
2020-03-13 16:00:00 12 14 Nordeste 24 Nordeste 0 -- -- 73
2020-03-13 15:00:00 12.7 15 Nordeste 22 Nordeste 0 -- -- 72
2020-03-13 14:00:00 13.1 13 Nordeste 21 Nordeste 0 -- -- 72
2020-03-13 13:00:00 13 11 Nordeste 23 Nordeste 0 -- -- 67
2020-03-13 12:00:00 11.6 10 Este 18 Este 0 -- -- 77
2020-03-13 11:00:00 10.7 8 Este 21 Este 0 -- -- 92
2020-03-13 10:00:00 10.6 12 Este 19 Este 0 -- -- 91
2020-03-13 09:00:00 10 10 Este 18 Nordeste 0 -- -- 92
2020-03-13 08:00:00 9.7 6 Este 17 Este 0 -- -- 92
2020-03-13 07:00:00 9.8 8 Este 18 Este 0 -- -- 93
2020-03-13 06:00:00 9.8 9 Este 21 Nordeste 0 -- -- 94
2020-03-13 05:00:00 10.1 7 Este 12 Este 0.1 -- -- 95
2020-03-13 04:00:00 9.9 3 Este 14 Este 0 -- -- 95
2020-03-13 03:00:00 10 4 Este 15 Nordeste 0 -- -- 95
2020-03-13 02:00:00 10.1 10 Nordeste 19 Nordeste 0 -- -- 95
2020-03-13 01:00:00 9.9 6 Este 12 Nordeste 0 -- -- 97
2020-03-13 00:00:00 10 6 Este 12 Este 0.1 -- -- 97
2020-03-12 23:00:00 10 8 Este 23 Nordeste 0.2 -- -- 98
2020-03-12 22:00:00 10.3 12 Nordeste 22 Nordeste 1.2 -- -- 97
2020-03-12 21:00:00 10.6 8 Noroeste 19 Noroeste 0.4 -- -- 97
2020-03-12 20:00:00 10.8 8 Noroeste 14 Noroeste 0.4 -- -- 97
2020-03-12 19:00:00 10.6 6 Nordeste 25 Nordeste 0.1 -- -- 97
2020-03-12 18:00:00 11.1 12 Nordeste 23 Nordeste 0 -- -- 97
2020-03-12 17:00:00 12.5 7 Noroeste 15 Noroeste 0 -- -- 95
2020-03-12 16:00:00 12.9 4 Norte 8 Norte 0 -- -- 93
2020-03-12 15:00:00 13.1 3 Norte 8 Norte 0 -- -- 93
2020-03-12 14:00:00 13.6 3 Noroeste 8 Norte 0 -- -- 92
2020-03-12 13:00:00 13.3 4 Norte 8 Norte 0 -- -- 94
2020-03-12 12:00:00 13.2 3 Sur 10 Sudeste 0 -- -- 95
2020-03-12 11:00:00 12.4 5 Sudeste 11 Sudeste 0 -- -- 97
2020-03-12 10:00:00 11.6 6 Sur 11 Sur 0 -- -- 97
2020-03-12 09:00:00 11.2 7 Sudeste 13 Sur 0 -- -- 97
2020-03-12 08:00:00 11 7 Sur 13 Sudeste 0 -- -- 97
2020-03-12 07:00:00 11 5 Sur 11 Sur 0 1013.2 0.1 97
2020-03-12 06:00:00 11.2 5 Sudeste 8 Sur 0 1013 -0.2 97
2020-03-12 05:00:00 11.2 3 Sudeste 4 Sur 0 1013 -0.3 97
2020-03-12 04:00:00 11.1 2 Sudoeste 5 Oeste 0 1013.1 -0.3 97
2020-03-12 03:00:00 11.2 3 Oeste 10 Noroeste 0 1013.2 -0.3 97
2020-03-12 02:00:00 11.3 4 Noroeste 10 Noroeste 0 1013.3 0 97
2020-03-12 01:00:00 11.1 3 Noroeste 6 Noroeste 0 1013.4 0.4 97
2020-03-12 00:00:00 10.3 0 Calma -- -- 0 1013.5 0.4 96
2020-03-11 23:00:00 10.6 0 Calma -- -- 0 1013.3 0.3 96
2020-03-11 22:00:00 10.7 0 Calma 3 Noroeste 0 1013 0.6 96
2020-03-11 21:00:00 11.3 3 Noroeste 10 Noroeste 0 1013.1 1.9 96
2020-03-11 20:00:00 11.7 6 Noroeste 19 Norte 0 1013 1.8 96
2020-03-11 19:00:00 12.2 11 Noroeste 19 Noroeste 0 1012.4 1.2 95
2020-03-11 18:00:00 13.8 7 Noroeste 12 Oeste 0 1011.2 -0.9 91
2020-03-11 17:00:00 14.9 6 Norte 17 Oeste 0 1011.2 -1.7 86
2020-03-11 16:00:00 15.2 5 Noroeste 13 Nordeste 0 1011.2 -2.6 86
2020-03-11 15:00:00 14.2 5 Noroeste 15 Nordeste 0 1012.1 -2.6 89
2020-03-11 14:00:00 15.2 7 Nordeste 14 Nordeste 0 1012.9 -2 86
2020-03-11 13:00:00 15.1 10 Nordeste 14 Nordeste 0 1013.8 -1.5 87
2020-03-11 12:00:00 13.2 6 Norte 10 Norte 0 1014.7 -0.5 91
2020-03-11 11:00:00 13.5 4 Sudeste 14 Sudeste 0 1014.9 -0.6 90
2020-03-11 10:00:00 10.6 9 Sur 15 Sur 0 1015.3 0 96
2020-03-11 09:00:00 8.5 9 Sur 15 Sur 0 1015.2 -0.1 98
2020-03-11 08:00:00 6.9 9 Sur 15 Sur 0 1015.5 -0.1 98
2020-03-11 07:00:00 7 11 Sur 16 Sur 0 1015.3 -0.3 98
2020-03-11 06:00:00 7 11 Sur 15 Sur 0 1015.3 -0.8 98
2020-03-11 05:00:00 7.6 9 Sur 14 Sur 0 1015.6 -0.9 98
2020-03-11 04:00:00 8.1 9 Sur 14 Sur 0 1015.6 -1.3 98
2020-03-11 03:00:00 8.4 8 Sur 16 Sudeste 0 1016.1 -1.3 98
2020-03-11 02:00:00 8.2 8 Sur 13 Sudeste 0 1016.5 -1 97
2020-03-11 01:00:00 8.6 8 Sudeste 11 Sur 0 1016.9 -0.4 97
2020-03-11 00:00:00 9 7 Sur 9 Sur 0 1017.4 0.6 96
2020-03-10 23:00:00 9.7 3 Sudoeste 5 Sudoeste 0 1017.5 1 95
2020-03-10 22:00:00 10.3 0 Calma -- -- 0 1017.3 0.8 94
2020-03-10 21:00:00 10.7 0 Calma -- -- 0 1016.8 0.3 93
2020-03-10 20:00:00 10.6 0 Calma 3 Sudeste 0 1016.5 0 92
2020-03-10 19:00:00 12.2 0 Calma 3 Noroeste 0 1016.5 -0.3 90
2020-03-10 18:00:00 13.4 2 Norte 9 Norte 0 1016.5 0.1 86
2020-03-10 17:00:00 14.1 6 Norte 12 Norte 0 1016.5 0 86
2020-03-10 16:00:00 14 8 Norte 13 Norte 0 1016.8 -0.4 85
2020-03-10 15:00:00 13.5 5 Norte 9 Norte 0 1016.4 -0.6 83
2020-03-10 14:00:00 13.4 3 Norte 9 Norte 0 1016.5 -0.4 81
2020-03-10 13:00:00 13.8 5 Norte 9 Norte 0 1017.2 0.4 79
2020-03-10 12:00:00 13.2 3 Nordeste 9 Sudoeste 0 1017 0.9 79
2020-03-10 11:00:00 11.3 5 Sur 11 Sur 0 1016.9 0.7 89
2020-03-10 10:00:00 8.9 8 Sur 14 Sur 0 1016.8 0.8 95
2020-03-10 09:00:00 7.7 8 Sur 14 Sudeste 0 1016.1 -0.1 96
2020-03-10 08:00:00 6.7 9 Sur 13 Sudeste 0 1016.2 -0.2 95
2020-03-10 07:00:00 6.9 9 Sur 14 Sur 0 1016 -0.5 95
2020-03-10 06:00:00 7.1 9 Sur 14 Sur 0 1016.2 -0.7 95
2020-03-10 05:00:00 7.3 9 Sur 15 Sur 0 1016.4 -1 96
2020-03-10 04:00:00 7.6 9 Sur 14 Sur 0 1016.5 -1.2 96
2020-03-10 03:00:00 7.8 8 Sur 13 Sudeste 0 1016.9 -0.7 96
2020-03-10 02:00:00 8.1 8 Sur 12 Sur 0 1017.4 -0.9 95
2020-03-10 01:00:00 8.4 8 Sur 12 Sudeste 0 1017.7 -0.8 96
2020-03-10 00:00:00 8.6 7 Sur 11 Sur 0 1017.6 -1.3 95